sensor_id;sensor_type;location;lat;lon;timestamp;P1;durP1;ratioP1;P2;durP2;ratioP2
24259;SDS011;12384;48.112;18.418;2022-12-05T00:02:01;42.30;;;37.90;;
24259;SDS011;12384;48.112;18.418;2022-12-05T00:04:29;43.60;;;38.90;;
24259;SDS011;12384;48.112;18.418;2022-12-05T00:06:58;41.77;;;37.43;;
24259;SDS011;12384;48.112;18.418;2022-12-05T00:09:26;40.20;;;36.10;;
24259;SDS011;12384;48.112;18.418;2022-12-05T00:11:55;41.20;;;37.07;;
24259;SDS011;12384;48.112;18.418;2022-12-05T00:14:23;41.13;;;36.90;;
24259;SDS011;12384;48.112;18.418;2022-12-05T00:16:51;42.80;;;38.33;;
24259;SDS011;12384;48.112;18.418;2022-12-05T00:19:21;41.30;;;36.97;;
24259;SDS011;12384;48.112;18.418;2022-12-05T00:21:49;41.90;;;37.50;;
24259;SDS011;12384;48.112;18.418;2022-12-05T00:24:18;43.80;;;39.00;;
24259;SDS011;12384;48.112;18.418;2022-12-05T00:26:47;45.83;;;38.10;;
24259;SDS011;12384;48.112;18.418;2022-12-05T00:29:15;43.57;;;38.90;;
24259;SDS011;12384;48.112;18.418;2022-12-05T00:31:44;44.17;;;39.37;;
24259;SDS011;12384;48.112;18.418;2022-12-05T00:34:12;42.80;;;38.27;;
24259;SDS011;12384;48.112;18.418;2022-12-05T00:36:42;43.17;;;38.57;;
24259;SDS011;12384;48.112;18.418;2022-12-05T00:39:11;41.17;;;36.87;;
24259;SDS011;12384;48.112;18.418;2022-12-05T00:41:41;41.03;;;36.73;;
24259;SDS011;12384;48.112;18.418;2022-12-05T00:44:10;43.27;;;38.57;;
24259;SDS011;12384;48.112;18.418;2022-12-05T00:46:39;42.80;;;38.30;;
24259;SDS011;12384;48.112;18.418;2022-12-05T00:49:09;43.23;;;38.73;;
24259;SDS011;12384;48.112;18.418;2022-12-05T00:51:39;42.10;;;37.67;;
24259;SDS011;12384;48.112;18.418;2022-12-05T00:54:11;43.30;;;38.77;;
24259;SDS011;12384;48.112;18.418;2022-12-05T00:56:41;44.07;;;39.43;;
24259;SDS011;12384;48.112;18.418;2022-12-05T00:59:12;41.97;;;37.60;;
24259;SDS011;12384;48.112;18.418;2022-12-05T01:01:43;43.83;;;39.40;;
24259;SDS011;12384;48.112;18.418;2022-12-05T01:04:14;42.10;;;37.73;;
24259;SDS011;12384;48.112;18.418;2022-12-05T01:06:44;43.57;;;38.87;;
24259;SDS011;12384;48.112;18.418;2022-12-05T01:09:15;44.50;;;39.87;;
24259;SDS011;12384;48.112;18.418;2022-12-05T01:11:46;44.07;;;39.37;;
24259;SDS011;12384;48.112;18.418;2022-12-05T01:14:17;42.80;;;38.17;;
24259;SDS011;12384;48.112;18.418;2022-12-05T01:16:47;43.13;;;38.63;;
24259;SDS011;12384;48.112;18.418;2022-12-05T01:19:18;43.23;;;38.63;;
24259;SDS011;12384;48.112;18.418;2022-12-05T01:21:48;40.23;;;36.03;;
24259;SDS011;12384;48.112;18.418;2022-12-05T01:24:19;42.53;;;37.97;;
24259;SDS011;12384;48.112;18.418;2022-12-05T01:26:48;43.33;;;38.77;;
24259;SDS011;12384;48.112;18.418;2022-12-05T01:29:17;42.90;;;38.13;;
24259;SDS011;12384;48.112;18.418;2022-12-05T01:31:47;41.33;;;37.07;;
24259;SDS011;12384;48.112;18.418;2022-12-05T01:34:16;42.03;;;37.60;;
24259;SDS011;12384;48.112;18.418;2022-12-05T01:36:45;42.80;;;38.20;;
24259;SDS011;12384;48.112;18.418;2022-12-05T01:39:14;40.67;;;36.33;;
24259;SDS011;12384;48.112;18.418;2022-12-05T01:41:45;41.07;;;36.77;;
24259;SDS011;12384;48.112;18.418;2022-12-05T01:47:20;41.10;;;36.70;;
24259;SDS011;12384;48.112;18.418;2022-12-05T01:49:50;40.13;;;36.03;;
24259;SDS011;12384;48.112;18.418;2022-12-05T01:52:20;40.03;;;35.73;;
24259;SDS011;12384;48.112;18.418;2022-12-05T01:54:53;39.60;;;35.50;;
24259;SDS011;12384;48.112;18.418;2022-12-05T01:57:27;39.17;;;35.13;;
24259;SDS011;12384;48.112;18.418;2022-12-05T01:59:56;39.47;;;35.43;;
24259;SDS011;12384;48.112;18.418;2022-12-05T02:02:37;41.03;;;36.53;;
24259;SDS011;12384;48.112;18.418;2022-12-05T02:05:08;39.87;;;35.73;;
24259;SDS011;12384;48.112;18.418;2022-12-05T02:07:42;40.80;;;36.70;;
24259;SDS011;12384;48.112;18.418;2022-12-05T02:10:14;40.70;;;36.30;;
24259;SDS011;12384;48.112;18.418;2022-12-05T02:12:43;40.63;;;36.43;;
24259;SDS011;12384;48.112;18.418;2022-12-05T02:15:19;39.20;;;35.17;;
24259;SDS011;12384;48.112;18.418;2022-12-05T02:17:57;39.47;;;35.43;;
24259;SDS011;12384;48.112;18.418;2022-12-05T02:20:43;39.43;;;35.20;;
24259;SDS011;12384;48.112;18.418;2022-12-05T02:23:25;37.20;;;33.37;;
24259;SDS011;12384;48.112;18.418;2022-12-05T02:32:12;39.10;;;35.00;;
24259;SDS011;12384;48.112;18.418;2022-12-05T02:34:50;40.77;;;36.53;;
24259;SDS011;12384;48.112;18.418;2022-12-05T02:37:26;39.43;;;35.33;;
24259;SDS011;12384;48.112;18.418;2022-12-05T02:39:59;39.77;;;35.60;;
24259;SDS011;12384;48.112;18.418;2022-12-05T02:42:34;39.37;;;35.30;;
24259;SDS011;12384;48.112;18.418;2022-12-05T02:45:11;39.97;;;35.77;;
24259;SDS011;12384;48.112;18.418;2022-12-05T02:47:43;39.23;;;35.17;;
24259;SDS011;12384;48.112;18.418;2022-12-05T02:50:15;39.43;;;35.43;;
24259;SDS011;12384;48.112;18.418;2022-12-05T02:52:47;37.73;;;33.93;;
24259;SDS011;12384;48.112;18.418;2022-12-05T02:55:18;40.50;;;36.27;;
24259;SDS011;12384;48.112;18.418;2022-12-05T02:57:48;38.60;;;34.63;;
24259;SDS011;12384;48.112;18.418;2022-12-05T03:00:20;39.07;;;35.03;;
24259;SDS011;12384;48.112;18.418;2022-12-05T03:02:49;39.10;;;35.03;;
24259;SDS011;12384;48.112;18.418;2022-12-05T03:05:21;38.70;;;34.60;;
24259;SDS011;12384;48.112;18.418;2022-12-05T03:08:10;38.73;;;34.60;;
24259;SDS011;12384;48.112;18.418;2022-12-05T03:10:43;37.77;;;33.80;;
24259;SDS011;12384;48.112;18.418;2022-12-05T03:13:15;37.90;;;34.00;;
24259;SDS011;12384;48.112;18.418;2022-12-05T03:15:49;37.30;;;33.33;;
24259;SDS011;12384;48.112;18.418;2022-12-05T03:18:24;36.83;;;33.03;;
24259;SDS011;12384;48.112;18.418;2022-12-05T03:20:56;37.43;;;33.63;;
24259;SDS011;12384;48.112;18.418;2022-12-05T03:23:29;37.03;;;33.20;;
24259;SDS011;12384;48.112;18.418;2022-12-05T03:26:02;35.10;;;31.57;;
24259;SDS011;12384;48.112;18.418;2022-12-05T03:28:42;36.33;;;32.73;;
24259;SDS011;12384;48.112;18.418;2022-12-05T03:31:23;36.87;;;33.07;;
24259;SDS011;12384;48.112;18.418;2022-12-05T03:33:57;36.37;;;32.60;;
24259;SDS011;12384;48.112;18.418;2022-12-05T03:36:31;35.70;;;32.03;;
24259;SDS011;12384;48.112;18.418;2022-12-05T03:39:05;36.93;;;33.07;;
24259;SDS011;12384;48.112;18.418;2022-12-05T03:41:39;35.80;;;32.20;;
24259;SDS011;12384;48.112;18.418;2022-12-05T03:44:12;36.03;;;32.33;;
24259;SDS011;12384;48.112;18.418;2022-12-05T03:46:45;34.70;;;31.20;;
24259;SDS011;12384;48.112;18.418;2022-12-05T03:49:19;34.83;;;31.37;;
24259;SDS011;12384;48.112;18.418;2022-12-05T03:52:02;33.60;;;30.20;;
24259;SDS011;12384;48.112;18.418;2022-12-05T03:54:35;36.17;;;32.27;;
24259;SDS011;12384;48.112;18.418;2022-12-05T03:57:07;34.47;;;31.03;;
24259;SDS011;12384;48.112;18.418;2022-12-05T03:59:40;34.70;;;31.00;;
24259;SDS011;12384;48.112;18.418;2022-12-05T04:02:14;32.87;;;29.57;;
24259;SDS011;12384;48.112;18.418;2022-12-05T04:04:49;32.43;;;29.33;;
24259;SDS011;12384;48.112;18.418;2022-12-05T04:07:22;32.10;;;29.00;;
24259;SDS011;12384;48.112;18.418;2022-12-05T04:09:54;32.50;;;29.33;;
24259;SDS011;12384;48.112;18.418;2022-12-05T04:12:27;32.37;;;29.03;;
24259;SDS011;12384;48.112;18.418;2022-12-05T04:15:01;32.17;;;29.07;;
24259;SDS011;12384;48.112;18.418;2022-12-05T04:17:39;31.50;;;28.40;;
24259;SDS011;12384;48.112;18.418;2022-12-05T04:20:20;32.17;;;28.83;;
24259;SDS011;12384;48.112;18.418;2022-12-05T04:23:11;31.43;;;28.27;;
24259;SDS011;12384;48.112;18.418;2022-12-05T04:25:43;31.00;;;27.87;;
24259;SDS011;12384;48.112;18.418;2022-12-05T04:28:25;33.13;;;29.73;;
24259;SDS011;12384;48.112;18.418;2022-12-05T04:31:00;32.30;;;28.77;;
24259;SDS011;12384;48.112;18.418;2022-12-05T04:33:35;32.27;;;29.00;;
24259;SDS011;12384;48.112;18.418;2022-12-05T04:36:11;30.07;;;26.97;;
24259;SDS011;12384;48.112;18.418;2022-12-05T04:38:42;30.63;;;27.63;;
24259;SDS011;12384;48.112;18.418;2022-12-05T04:41:16;30.53;;;27.43;;
24259;SDS011;12384;48.112;18.418;2022-12-05T04:43:49;31.37;;;28.00;;
24259;SDS011;12384;48.112;18.418;2022-12-05T04:46:20;32.10;;;28.70;;
24259;SDS011;12384;48.112;18.418;2022-12-05T04:48:53;31.37;;;28.13;;
24259;SDS011;12384;48.112;18.418;2022-12-05T04:51:25;30.87;;;27.63;;
24259;SDS011;12384;48.112;18.418;2022-12-05T04:53:58;31.00;;;27.90;;
24259;SDS011;12384;48.112;18.418;2022-12-05T04:56:32;30.83;;;27.73;;
24259;SDS011;12384;48.112;18.418;2022-12-05T04:59:03;32.53;;;29.03;;
24259;SDS011;12384;48.112;18.418;2022-12-05T05:01:33;31.50;;;28.30;;
24259;SDS011;12384;48.112;18.418;2022-12-05T05:04:08;31.87;;;28.57;;
24259;SDS011;12384;48.112;18.418;2022-12-05T05:06:39;30.33;;;27.23;;
24259;SDS011;12384;48.112;18.418;2022-12-05T05:09:08;29.43;;;26.43;;
24259;SDS011;12384;48.112;18.418;2022-12-05T05:11:37;30.50;;;27.40;;
24259;SDS011;12384;48.112;18.418;2022-12-05T05:14:06;30.97;;;26.27;;
24259;SDS011;12384;48.112;18.418;2022-12-05T05:16:35;30.73;;;27.47;;
24259;SDS011;12384;48.112;18.418;2022-12-05T05:19:07;30.30;;;27.23;;
24259;SDS011;12384;48.112;18.418;2022-12-05T05:21:37;30.13;;;26.87;;
24259;SDS011;12384;48.112;18.418;2022-12-05T05:24:07;30.10;;;27.03;;
24259;SDS011;12384;48.112;18.418;2022-12-05T05:26:38;30.43;;;27.17;;
24259;SDS011;12384;48.112;18.418;2022-12-05T05:29:08;29.73;;;26.53;;
24259;SDS011;12384;48.112;18.418;2022-12-05T05:31:37;28.47;;;25.60;;
24259;SDS011;12384;48.112;18.418;2022-12-05T05:34:08;28.37;;;25.40;;
24259;SDS011;12384;48.112;18.418;2022-12-05T05:36:37;30.10;;;26.83;;
24259;SDS011;12384;48.112;18.418;2022-12-05T05:39:09;28.43;;;25.50;;
24259;SDS011;12384;48.112;18.418;2022-12-05T05:41:39;29.40;;;26.27;;
24259;SDS011;12384;48.112;18.418;2022-12-05T05:44:08;28.87;;;25.60;;
24259;SDS011;12384;48.112;18.418;2022-12-05T05:46:37;28.73;;;25.63;;
24259;SDS011;12384;48.112;18.418;2022-12-05T05:49:05;27.90;;;24.83;;
24259;SDS011;12384;48.112;18.418;2022-12-05T05:51:36;29.23;;;25.83;;
24259;SDS011;12384;48.112;18.418;2022-12-05T05:54:04;32.07;;;26.17;;
24259;SDS011;12384;48.112;18.418;2022-12-05T05:56:33;30.83;;;25.30;;
24259;SDS011;12384;48.112;18.418;2022-12-05T05:59:02;29.17;;;26.00;;
24259;SDS011;12384;48.112;18.418;2022-12-05T06:01:30;29.90;;;24.97;;
24259;SDS011;12384;48.112;18.418;2022-12-05T06:03:59;32.57;;;26.60;;
24259;SDS011;12384;48.112;18.418;2022-12-05T06:06:29;27.90;;;25.00;;
24259;SDS011;12384;48.112;18.418;2022-12-05T06:08:57;31.07;;;25.07;;
24259;SDS011;12384;48.112;18.418;2022-12-05T06:11:26;29.13;;;25.57;;
24259;SDS011;12384;48.112;18.418;2022-12-05T06:13:55;28.00;;;24.97;;
24259;SDS011;12384;48.112;18.418;2022-12-05T06:16:26;29.80;;;25.93;;
24259;SDS011;12384;48.112;18.418;2022-12-05T06:18:55;31.77;;;26.30;;
24259;SDS011;12384;48.112;18.418;2022-12-05T06:21:24;29.87;;;26.13;;
24259;SDS011;12384;48.112;18.418;2022-12-05T06:23:54;30.50;;;26.73;;
24259;SDS011;12384;48.112;18.418;2022-12-05T06:26:23;32.17;;;27.37;;
24259;SDS011;12384;48.112;18.418;2022-12-05T06:28:52;30.10;;;26.80;;
24259;SDS011;12384;48.112;18.418;2022-12-05T06:31:21;35.90;;;28.53;;
24259;SDS011;12384;48.112;18.418;2022-12-05T06:33:52;31.60;;;27.00;;
24259;SDS011;12384;48.112;18.418;2022-12-05T06:36:21;29.63;;;26.43;;
24259;SDS011;12384;48.112;18.418;2022-12-05T06:38:49;30.83;;;26.73;;
24259;SDS011;12384;48.112;18.418;2022-12-05T06:41:19;32.77;;;27.93;;
24259;SDS011;12384;48.112;18.418;2022-12-05T06:43:51;32.67;;;27.43;;
24259;SDS011;12384;48.112;18.418;2022-12-05T06:46:27;29.70;;;26.43;;
24259;SDS011;12384;48.112;18.418;2022-12-05T06:48:56;35.73;;;27.47;;
24259;SDS011;12384;48.112;18.418;2022-12-05T06:51:25;32.60;;;27.07;;
24259;SDS011;12384;48.112;18.418;2022-12-05T06:53:54;34.97;;;26.93;;
24259;SDS011;12384;48.112;18.418;2022-12-05T06:56:23;34.83;;;27.23;;
24259;SDS011;12384;48.112;18.418;2022-12-05T06:58:52;31.37;;;26.60;;
24259;SDS011;12384;48.112;18.418;2022-12-05T07:01:22;34.47;;;27.27;;
24259;SDS011;12384;48.112;18.418;2022-12-05T07:04:09;36.37;;;27.13;;
24259;SDS011;12384;48.112;18.418;2022-12-05T07:06:39;31.13;;;26.63;;
24259;SDS011;12384;48.112;18.418;2022-12-05T07:09:14;30.60;;;26.17;;
24259;SDS011;12384;48.112;18.418;2022-12-05T07:11:46;33.90;;;27.93;;
24259;SDS011;12384;48.112;18.418;2022-12-05T07:14:15;33.67;;;25.40;;
24259;SDS011;12384;48.112;18.418;2022-12-05T07:17:04;32.73;;;26.73;;
24259;SDS011;12384;48.112;18.418;2022-12-05T07:19:32;29.87;;;24.50;;
24259;SDS011;12384;48.112;18.418;2022-12-05T07:22:01;32.43;;;25.13;;
24259;SDS011;12384;48.112;18.418;2022-12-05T07:24:29;33.50;;;25.40;;
24259;SDS011;12384;48.112;18.418;2022-12-05T07:26:59;34.73;;;25.87;;
24259;SDS011;12384;48.112;18.418;2022-12-05T07:29:27;30.33;;;25.43;;
24259;SDS011;12384;48.112;18.418;2022-12-05T07:31:56;34.83;;;27.93;;
24259;SDS011;12384;48.112;18.418;2022-12-05T07:34:24;35.07;;;28.23;;
24259;SDS011;12384;48.112;18.418;2022-12-05T07:36:52;33.83;;;27.80;;
24259;SDS011;12384;48.112;18.418;2022-12-05T07:39:21;33.70;;;26.60;;
24259;SDS011;12384;48.112;18.418;2022-12-05T07:41:49;33.53;;;27.87;;
24259;SDS011;12384;48.112;18.418;2022-12-05T07:44:19;32.30;;;25.30;;
24259;SDS011;12384;48.112;18.418;2022-12-05T07:46:47;33.00;;;25.30;;
24259;SDS011;12384;48.112;18.418;2022-12-05T07:49:16;35.50;;;28.23;;
24259;SDS011;12384;48.112;18.418;2022-12-05T07:51:44;32.37;;;26.17;;
24259;SDS011;12384;48.112;18.418;2022-12-05T07:54:12;35.40;;;27.57;;
24259;SDS011;12384;48.112;18.418;2022-12-05T07:56:41;36.23;;;28.07;;
24259;SDS011;12384;48.112;18.418;2022-12-05T07:59:13;36.37;;;27.30;;
24259;SDS011;12384;48.112;18.418;2022-12-05T08:01:43;35.43;;;27.57;;
24259;SDS011;12384;48.112;18.418;2022-12-05T08:04:11;38.83;;;29.77;;
24259;SDS011;12384;48.112;18.418;2022-12-05T08:06:41;41.27;;;31.57;;
24259;SDS011;12384;48.112;18.418;2022-12-05T08:09:10;39.80;;;30.60;;
24259;SDS011;12384;48.112;18.418;2022-12-05T08:11:38;39.37;;;30.40;;
24259;SDS011;12384;48.112;18.418;2022-12-05T08:14:06;35.43;;;27.00;;
24259;SDS011;12384;48.112;18.418;2022-12-05T08:16:35;30.63;;;24.33;;
24259;SDS011;12384;48.112;18.418;2022-12-05T08:19:06;33.60;;;25.17;;
24259;SDS011;12384;48.112;18.418;2022-12-05T08:21:38;29.70;;;24.90;;
24259;SDS011;12384;48.112;18.418;2022-12-05T08:24:07;32.50;;;25.70;;
24259;SDS011;12384;48.112;18.418;2022-12-05T08:26:36;33.03;;;25.10;;
24259;SDS011;12384;48.112;18.418;2022-12-05T08:29:06;31.73;;;24.90;;
24259;SDS011;12384;48.112;18.418;2022-12-05T08:31:38;33.33;;;25.33;;
24259;SDS011;12384;48.112;18.418;2022-12-05T08:34:10;32.70;;;25.37;;
24259;SDS011;12384;48.112;18.418;2022-12-05T08:36:39;30.33;;;23.73;;
24259;SDS011;12384;48.112;18.418;2022-12-05T08:39:10;31.17;;;25.13;;
24259;SDS011;12384;48.112;18.418;2022-12-05T08:41:41;27.80;;;23.63;;
24259;SDS011;12384;48.112;18.418;2022-12-05T08:44:10;30.67;;;23.60;;
24259;SDS011;12384;48.112;18.418;2022-12-05T08:46:42;31.13;;;25.37;;
24259;SDS011;12384;48.112;18.418;2022-12-05T08:49:13;30.87;;;25.07;;
24259;SDS011;12384;48.112;18.418;2022-12-05T08:51:42;33.97;;;26.23;;
24259;SDS011;12384;48.112;18.418;2022-12-05T08:54:10;31.23;;;24.10;;
24259;SDS011;12384;48.112;18.418;2022-12-05T08:56:39;33.93;;;25.37;;
24259;SDS011;12384;48.112;18.418;2022-12-05T08:59:07;31.43;;;24.17;;
24259;SDS011;12384;48.112;18.418;2022-12-05T09:01:36;32.00;;;25.00;;
24259;SDS011;12384;48.112;18.418;2022-12-05T09:04:06;33.13;;;25.60;;
24259;SDS011;12384;48.112;18.418;2022-12-05T09:06:36;28.47;;;23.50;;
24259;SDS011;12384;48.112;18.418;2022-12-05T09:09:07;35.97;;;25.93;;
24259;SDS011;12384;48.112;18.418;2022-12-05T09:11:38;34.07;;;24.60;;
24259;SDS011;12384;48.112;18.418;2022-12-05T09:14:12;33.97;;;26.63;;
24259;SDS011;12384;48.112;18.418;2022-12-05T09:16:43;38.83;;;29.13;;
24259;SDS011;12384;48.112;18.418;2022-12-05T09:19:13;41.53;;;31.27;;
24259;SDS011;12384;48.112;18.418;2022-12-05T09:21:44;36.40;;;28.63;;
24259;SDS011;12384;48.112;18.418;2022-12-05T09:24:12;33.03;;;27.60;;
24259;SDS011;12384;48.112;18.418;2022-12-05T09:26:41;35.77;;;28.23;;
24259;SDS011;12384;48.112;18.418;2022-12-05T09:29:10;35.93;;;27.47;;
24259;SDS011;12384;48.112;18.418;2022-12-05T09:31:44;34.03;;;26.27;;
24259;SDS011;12384;48.112;18.418;2022-12-05T09:34:14;33.73;;;25.83;;
24259;SDS011;12384;48.112;18.418;2022-12-05T09:36:46;37.93;;;29.60;;
24259;SDS011;12384;48.112;18.418;2022-12-05T09:39:24;38.73;;;31.27;;
24259;SDS011;12384;48.112;18.418;2022-12-05T09:41:58;37.57;;;30.07;;
24259;SDS011;12384;48.112;18.418;2022-12-05T09:44:57;31.40;;;26.10;;
24259;SDS011;12384;48.112;18.418;2022-12-05T09:47:38;35.50;;;26.10;;
24259;SDS011;12384;48.112;18.418;2022-12-05T09:50:13;31.80;;;24.10;;
24259;SDS011;12384;48.112;18.418;2022-12-05T09:52:54;30.40;;;25.13;;
24259;SDS011;12384;48.112;18.418;2022-12-05T09:55:35;32.77;;;24.90;;
24259;SDS011;12384;48.112;18.418;2022-12-05T09:58:16;33.17;;;26.30;;
24259;SDS011;12384;48.112;18.418;2022-12-05T10:00:58;32.50;;;26.67;;
24259;SDS011;12384;48.112;18.418;2022-12-05T10:03:32;52.43;;;38.10;;
24259;SDS011;12384;48.112;18.418;2022-12-05T10:06:17;140.80;;;74.07;;
24259;SDS011;12384;48.112;18.418;2022-12-05T10:08:57;67.87;;;45.63;;
24259;SDS011;12384;48.112;18.418;2022-12-05T10:11:37;40.20;;;30.27;;
24259;SDS011;12384;48.112;18.418;2022-12-05T10:14:11;32.07;;;26.43;;
24259;SDS011;12384;48.112;18.418;2022-12-05T10:16:48;33.90;;;25.80;;
24259;SDS011;12384;48.112;18.418;2022-12-05T10:19:21;33.40;;;26.73;;
24259;SDS011;12384;48.112;18.418;2022-12-05T10:21:56;40.10;;;31.27;;
24259;SDS011;12384;48.112;18.418;2022-12-05T10:24:31;38.00;;;30.60;;
24259;SDS011;12384;48.112;18.418;2022-12-05T10:27:04;42.67;;;31.40;;
24259;SDS011;12384;48.112;18.418;2022-12-05T10:29:37;31.57;;;26.83;;
24259;SDS011;12384;48.112;18.418;2022-12-05T10:32:10;33.37;;;27.80;;
24259;SDS011;12384;48.112;18.418;2022-12-05T10:34:43;34.40;;;27.97;;
24259;SDS011;12384;48.112;18.418;2022-12-05T10:37:13;35.73;;;26.87;;
24259;SDS011;12384;48.112;18.418;2022-12-05T10:39:45;33.33;;;28.30;;
24259;SDS011;12384;48.112;18.418;2022-12-05T10:42:14;35.13;;;29.77;;
24259;SDS011;12384;48.112;18.418;2022-12-05T10:44:45;35.10;;;28.77;;
24259;SDS011;12384;48.112;18.418;2022-12-05T10:47:14;36.63;;;29.03;;
24259;SDS011;12384;48.112;18.418;2022-12-05T10:49:43;31.20;;;27.57;;
24259;SDS011;12384;48.112;18.418;2022-12-05T10:52:12;35.90;;;30.53;;
24259;SDS011;12384;48.112;18.418;2022-12-05T10:54:43;33.00;;;28.40;;
24259;SDS011;12384;48.112;18.418;2022-12-05T10:57:21;33.70;;;27.73;;
24259;SDS011;12384;48.112;18.418;2022-12-05T10:59:51;34.73;;;27.97;;
24259;SDS011;12384;48.112;18.418;2022-12-05T11:02:23;32.87;;;28.80;;
24259;SDS011;12384;48.112;18.418;2022-12-05T11:04:54;32.63;;;27.47;;
24259;SDS011;12384;48.112;18.418;2022-12-05T11:07:26;29.30;;;25.43;;
24259;SDS011;12384;48.112;18.418;2022-12-05T11:09:59;29.67;;;26.53;;
24259;SDS011;12384;48.112;18.418;2022-12-05T11:12:28;30.70;;;27.50;;
24259;SDS011;12384;48.112;18.418;2022-12-05T11:15:04;29.43;;;26.37;;
24259;SDS011;12384;48.112;18.418;2022-12-05T11:17:48;28.77;;;25.77;;
24259;SDS011;12384;48.112;18.418;2022-12-05T11:20:35;27.63;;;24.67;;
24259;SDS011;12384;48.112;18.418;2022-12-05T11:23:20;29.37;;;26.23;;
24259;SDS011;12384;48.112;18.418;2022-12-05T11:25:52;31.80;;;28.27;;
24259;SDS011;12384;48.112;18.418;2022-12-05T11:28:23;34.83;;;28.80;;
24259;SDS011;12384;48.112;18.418;2022-12-05T11:31:00;32.30;;;26.57;;
24259;SDS011;12384;48.112;18.418;2022-12-05T11:33:30;30.90;;;26.37;;
24259;SDS011;12384;48.112;18.418;2022-12-05T11:36:02;28.90;;;25.63;;
24259;SDS011;12384;48.112;18.418;2022-12-05T11:38:35;30.37;;;27.17;;
24259;SDS011;12384;48.112;18.418;2022-12-05T11:41:14;30.73;;;26.57;;
24259;SDS011;12384;48.112;18.418;2022-12-05T11:46:58;28.10;;;25.10;;
24259;SDS011;12384;48.112;18.418;2022-12-05T11:49:56;32.67;;;27.60;;
24259;SDS011;12384;48.112;18.418;2022-12-05T11:52:37;29.27;;;26.13;;
24259;SDS011;12384;48.112;18.418;2022-12-05T11:55:18;33.40;;;27.93;;
24259;SDS011;12384;48.112;18.418;2022-12-05T12:00:49;31.03;;;27.73;;
24259;SDS011;12384;48.112;18.418;2022-12-05T12:03:44;29.37;;;26.40;;
24259;SDS011;12384;48.112;18.418;2022-12-05T12:06:30;31.53;;;26.63;;
24259;SDS011;12384;48.112;18.418;2022-12-05T12:09:13;30.77;;;27.57;;
24259;SDS011;12384;48.112;18.418;2022-12-05T12:11:56;33.47;;;29.10;;
24259;SDS011;12384;48.112;18.418;2022-12-05T12:14:35;29.57;;;26.43;;
24259;SDS011;12384;48.112;18.418;2022-12-05T12:17:15;31.07;;;27.80;;
24259;SDS011;12384;48.112;18.418;2022-12-05T12:19:55;30.03;;;26.87;;
24259;SDS011;12384;48.112;18.418;2022-12-05T12:22:43;31.07;;;27.87;;
24259;SDS011;12384;48.112;18.418;2022-12-05T12:25:25;31.33;;;27.70;;
24259;SDS011;12384;48.112;18.418;2022-12-05T12:28:02;33.40;;;30.00;;
24259;SDS011;12384;48.112;18.418;2022-12-05T12:30:48;39.97;;;34.20;;
24259;SDS011;12384;48.112;18.418;2022-12-05T12:33:26;39.90;;;34.13;;
24259;SDS011;12384;48.112;18.418;2022-12-05T12:36:01;34.93;;;30.37;;
24259;SDS011;12384;48.112;18.418;2022-12-05T12:38:46;32.20;;;28.17;;
24259;SDS011;12384;48.112;18.418;2022-12-05T12:41:43;32.53;;;28.70;;
24259;SDS011;12384;48.112;18.418;2022-12-05T12:47:18;33.17;;;29.60;;
24259;SDS011;12384;48.112;18.418;2022-12-05T12:49:59;34.63;;;30.90;;
24259;SDS011;12384;48.112;18.418;2022-12-05T12:52:40;39.13;;;34.27;;
24259;SDS011;12384;48.112;18.418;2022-12-05T12:55:35;44.63;;;33.87;;
24259;SDS011;12384;48.112;18.418;2022-12-05T12:58:12;33.97;;;30.33;;
24259;SDS011;12384;48.112;18.418;2022-12-05T13:00:52;35.17;;;31.40;;
24259;SDS011;12384;48.112;18.418;2022-12-05T13:03:30;35.87;;;32.10;;
24259;SDS011;12384;48.112;18.418;2022-12-05T13:06:06;34.37;;;30.70;;
24259;SDS011;12384;48.112;18.418;2022-12-05T13:08:40;36.97;;;31.80;;
24259;SDS011;12384;48.112;18.418;2022-12-05T13:11:13;41.37;;;33.50;;
24259;SDS011;12384;48.112;18.418;2022-12-05T13:13:45;36.33;;;32.33;;
24259;SDS011;12384;48.112;18.418;2022-12-05T13:16:20;38.70;;;32.97;;
24259;SDS011;12384;48.112;18.418;2022-12-05T13:18:53;38.33;;;32.97;;
24259;SDS011;12384;48.112;18.418;2022-12-05T13:21:23;37.20;;;33.10;;
24259;SDS011;12384;48.112;18.418;2022-12-05T13:23:54;41.13;;;34.73;;
24259;SDS011;12384;48.112;18.418;2022-12-05T13:26:29;40.13;;;33.23;;
24259;SDS011;12384;48.112;18.418;2022-12-05T13:29:00;45.23;;;35.60;;
24259;SDS011;12384;48.112;18.418;2022-12-05T13:31:34;40.23;;;33.37;;
24259;SDS011;12384;48.112;18.418;2022-12-05T13:34:06;42.93;;;35.13;;
24259;SDS011;12384;48.112;18.418;2022-12-05T13:37:16;43.33;;;34.43;;
24259;SDS011;12384;48.112;18.418;2022-12-05T13:40:04;41.83;;;34.57;;
24259;SDS011;12384;48.112;18.418;2022-12-05T13:43:02;38.47;;;34.23;;
24259;SDS011;12384;48.112;18.418;2022-12-05T13:45:32;40.17;;;32.57;;
24259;SDS011;12384;48.112;18.418;2022-12-05T13:50:50;38.47;;;33.37;;
24259;SDS011;12384;48.112;18.418;2022-12-05T13:53:34;38.67;;;32.57;;
24259;SDS011;12384;48.112;18.418;2022-12-05T13:56:05;41.13;;;36.13;;
24259;SDS011;12384;48.112;18.418;2022-12-05T13:58:50;40.97;;;35.17;;
24259;SDS011;12384;48.112;18.418;2022-12-05T14:10:15;43.40;;;35.13;;
24259;SDS011;12384;48.112;18.418;2022-12-05T14:12:49;41.60;;;36.57;;
24259;SDS011;12384;48.112;18.418;2022-12-05T14:15:24;43.63;;;36.00;;
24259;SDS011;12384;48.112;18.418;2022-12-05T14:18:11;38.93;;;34.67;;
24259;SDS011;12384;48.112;18.418;2022-12-05T14:20:55;41.13;;;34.07;;
24259;SDS011;12384;48.112;18.418;2022-12-05T14:23:37;43.67;;;36.17;;
24259;SDS011;12384;48.112;18.418;2022-12-05T14:26:28;45.57;;;37.30;;
24259;SDS011;12384;48.112;18.418;2022-12-05T14:29:11;45.30;;;37.97;;
24259;SDS011;12384;48.112;18.418;2022-12-05T14:32:00;45.30;;;37.90;;
24259;SDS011;12384;48.112;18.418;2022-12-05T14:34:37;48.70;;;37.87;;
24259;SDS011;12384;48.112;18.418;2022-12-05T14:37:24;48.17;;;37.10;;
24259;SDS011;12384;48.112;18.418;2022-12-05T14:39:58;39.13;;;34.90;;
24259;SDS011;12384;48.112;18.418;2022-12-05T14:42:33;45.80;;;37.20;;
24259;SDS011;12384;48.112;18.418;2022-12-05T14:45:20;50.47;;;40.23;;
24259;SDS011;12384;48.112;18.418;2022-12-05T14:47:55;45.43;;;38.93;;
24259;SDS011;12384;48.112;18.418;2022-12-05T14:53:21;41.97;;;35.03;;
24259;SDS011;12384;48.112;18.418;2022-12-05T14:55:55;39.60;;;35.20;;
24259;SDS011;12384;48.112;18.418;2022-12-05T14:58:31;42.83;;;35.97;;
24259;SDS011;12384;48.112;18.418;2022-12-05T15:01:04;38.47;;;33.73;;
24259;SDS011;12384;48.112;18.418;2022-12-05T15:03:35;44.10;;;36.03;;
24259;SDS011;12384;48.112;18.418;2022-12-05T15:06:10;45.87;;;36.03;;
24259;SDS011;12384;48.112;18.418;2022-12-05T15:08:44;41.93;;;34.60;;
24259;SDS011;12384;48.112;18.418;2022-12-05T15:11:17;39.30;;;34.47;;
24259;SDS011;12384;48.112;18.418;2022-12-05T15:13:55;39.60;;;34.30;;
24259;SDS011;12384;48.112;18.418;2022-12-05T15:16:27;41.27;;;34.43;;
24259;SDS011;12384;48.112;18.418;2022-12-05T15:18:59;40.83;;;34.23;;